createdAt,value
2024-05-09T00:00:44.261Z,19.27
2024-05-09T00:03:12.418Z,21.17
2024-05-09T00:05:43.673Z,19.97
2024-05-09T00:08:11.727Z,19.10
2024-05-09T00:10:40.630Z,23.43
2024-05-09T00:13:09.062Z,20.70
2024-05-09T00:15:36.971Z,21.73
2024-05-09T00:18:05.671Z,18.80
2024-05-09T00:20:38.695Z,20.33
2024-05-09T00:23:09.269Z,21.93
2024-05-09T00:25:37.196Z,24.47
2024-05-09T00:28:04.591Z,18.00
2024-05-09T00:30:35.328Z,20.33
2024-05-09T00:33:08.757Z,19.60
2024-05-09T00:35:37.564Z,20.53
2024-05-09T00:38:04.942Z,23.13
2024-05-09T00:40:43.169Z,22.37
2024-05-09T00:43:12.218Z,17.73
2024-05-09T00:45:40.483Z,18.57
2024-05-09T00:48:09.479Z,19.47
2024-05-09T00:50:42.181Z,21.33
2024-05-09T00:53:11.871Z,18.70
2024-05-09T00:55:39.731Z,18.40
2024-05-09T00:58:08.528Z,17.53
2024-05-09T01:00:39.639Z,23.97
2024-05-09T01:03:10.822Z,17.90
2024-05-09T01:05:40.453Z,18.87
2024-05-09T01:08:08.507Z,23.97
2024-05-09T01:10:36.756Z,23.70
2024-05-09T01:13:05.334Z,20.03
2024-05-09T01:15:32.860Z,18.90
2024-05-09T01:18:04.343Z,25.23
2024-05-09T01:20:40.849Z,20.27
2024-05-09T01:23:11.635Z,18.40
2024-05-09T01:25:39.406Z,17.27
2024-05-09T01:28:06.895Z,17.40
2024-05-09T01:30:36.902Z,18.20
2024-05-09T01:33:07.734Z,20.97
2024-05-09T01:35:37.064Z,20.00
2024-05-09T01:38:04.763Z,19.33
2024-05-09T01:40:37.837Z,21.53
2024-05-09T01:43:07.904Z,19.07
2024-05-09T01:45:36.692Z,17.53
2024-05-09T01:48:04.370Z,18.97
2024-05-09T01:53:02.213Z,19.83
2024-05-09T01:55:29.622Z,21.40
2024-05-09T01:57:56.873Z,21.63
2024-05-09T02:00:36.823Z,22.30
2024-05-09T02:03:15.010Z,17.93
2024-05-09T02:05:45.732Z,18.83
2024-05-09T02:08:18.266Z,19.77
2024-05-09T02:10:46.866Z,19.27
2024-05-09T02:13:15.083Z,16.77
2024-05-09T02:15:42.618Z,14.67
2024-05-09T02:18:10.603Z,21.00
2024-05-09T02:20:39.787Z,17.67
2024-05-09T02:23:07.468Z,15.47
2024-05-09T02:25:35.414Z,16.30
2024-05-09T02:28:02.741Z,13.47
2024-05-09T02:30:38.647Z,16.57
2024-05-09T02:33:13.469Z,12.03
2024-05-09T02:35:43.089Z,16.23
2024-05-09T02:38:11.435Z,16.27
2024-05-09T02:40:39.791Z,14.13
2024-05-09T02:43:09.570Z,15.80
2024-05-09T02:45:38.121Z,15.50
2024-05-09T02:48:05.708Z,15.43
2024-05-09T02:50:38.333Z,15.93
2024-05-09T02:53:13.310Z,13.70
2024-05-09T02:55:41.286Z,11.87
2024-05-09T02:58:08.843Z,11.10
2024-05-09T03:00:39.894Z,10.33
2024-05-09T03:03:11.353Z,11.50
2024-05-09T03:05:41.094Z,9.03
2024-05-09T03:08:08.533Z,8.90
2024-05-09T03:10:38.115Z,11.97
2024-05-09T03:13:15.083Z,11.63
2024-05-09T03:15:43.728Z,9.93
2024-05-09T03:18:12.200Z,10.60
2024-05-09T03:20:40.379Z,9.80
2024-05-09T03:23:09.389Z,10.90
2024-05-09T03:25:37.732Z,12.60
2024-05-09T03:28:05.070Z,7.30
2024-05-09T03:30:40.050Z,5.90
2024-05-09T03:33:15.758Z,5.90
2024-05-09T03:35:46.514Z,4.73
2024-05-09T03:38:14.242Z,7.40
2024-05-09T03:40:45.956Z,7.03
2024-05-09T03:43:13.642Z,6.13
2024-05-09T03:45:40.888Z,9.07
2024-05-09T03:48:08.830Z,6.33
2024-05-09T03:50:37.134Z,12.57
2024-05-09T03:53:04.878Z,9.03
2024-05-09T03:55:32.330Z,12.67
2024-05-09T03:57:59.901Z,12.17
2024-05-09T04:00:35.447Z,15.57
2024-05-09T04:03:08.778Z,13.60
2024-05-09T04:05:39.826Z,13.77
2024-05-09T04:08:08.019Z,17.20
2024-05-09T04:10:35.532Z,14.90
2024-05-09T04:13:03.807Z,14.80
2024-05-09T04:15:31.817Z,13.43
2024-05-09T04:17:59.329Z,11.60
2024-05-09T04:22:57.086Z,12.60
2024-05-09T04:25:24.402Z,15.00
2024-05-09T04:27:55.846Z,14.53
2024-05-09T04:30:34.248Z,14.77
2024-05-09T04:33:06.655Z,12.33
2024-05-09T04:35:34.823Z,12.20
2024-05-09T04:38:02.098Z,12.27
2024-05-09T04:40:34.137Z,9.23
2024-05-09T04:43:04.090Z,10.07
2024-05-09T04:45:31.551Z,11.03
2024-05-09T04:47:59.187Z,9.70
2024-05-09T04:50:35.435Z,9.07
2024-05-09T04:53:06.901Z,12.97
2024-05-09T04:55:34.808Z,12.70
2024-05-09T04:58:02.193Z,9.17
2024-05-09T05:00:36.318Z,10.27
2024-05-09T05:03:10.641Z,8.33
2024-05-09T05:05:43.313Z,9.37
2024-05-09T05:08:16.281Z,10.87
2024-05-09T05:10:44.848Z,10.33
2024-05-09T05:13:25.089Z,13.57
2024-05-09T05:15:57.496Z,18.03
2024-05-09T05:18:26.716Z,23.17
2024-05-09T05:20:56.491Z,28.67
2024-05-09T05:23:24.464Z,29.00
2024-05-09T05:25:53.442Z,24.20
2024-05-09T05:28:21.678Z,27.93
2024-05-09T05:30:48.986Z,30.43
2024-05-09T05:33:18.961Z,29.03
2024-05-09T05:35:47.097Z,37.00
2024-05-09T05:38:14.556Z,34.37
2024-05-09T05:40:41.994Z,31.90
2024-05-09T05:43:15.628Z,34.17
2024-05-09T05:45:42.484Z,32.23
2024-05-09T05:48:09.935Z,38.17
2024-05-09T05:50:38.544Z,36.13
2024-05-09T05:53:07.763Z,34.10
2024-05-09T05:55:35.971Z,37.57
2024-05-09T05:58:03.463Z,33.03
2024-05-09T06:00:38.076Z,34.53
2024-05-09T06:03:07.433Z,32.60
2024-05-09T06:05:35.286Z,33.67
2024-05-09T06:08:02.758Z,42.47
2024-05-09T06:10:37.592Z,37.63
2024-05-09T06:13:07.784Z,36.83
2024-05-09T06:15:35.177Z,33.43
2024-05-09T06:18:02.603Z,34.63
2024-05-09T06:20:36.338Z,35.27
2024-05-09T06:23:06.679Z,37.53
2024-05-09T06:25:34.509Z,39.03
2024-05-09T06:28:02.131Z,39.03
2024-05-09T06:30:37.547Z,38.47
2024-05-09T06:33:09.256Z,35.40
2024-05-09T06:35:37.575Z,35.27
2024-05-09T06:38:05.227Z,32.13
2024-05-09T06:40:37.566Z,35.37
2024-05-09T06:43:18.318Z,30.63
2024-05-09T06:45:50.574Z,27.23
2024-05-09T06:48:22.282Z,30.13
2024-05-09T06:50:50.309Z,33.07
2024-05-09T06:53:20.174Z,25.97
2024-05-09T06:55:47.609Z,20.87
2024-05-09T06:58:14.929Z,23.63
2024-05-09T07:00:42.583Z,26.50
2024-05-09T07:03:16.739Z,27.13
2024-05-09T07:05:54.501Z,26.60
2024-05-09T07:08:21.848Z,25.10
2024-05-09T07:10:49.758Z,22.60
2024-05-09T07:13:17.290Z,27.70
2024-05-09T07:15:44.727Z,24.20
2024-05-09T07:18:17.369Z,24.40
2024-05-09T07:20:46.712Z,23.63
2024-05-09T07:23:14.071Z,27.23
2024-05-09T07:25:41.908Z,32.00
2024-05-09T07:28:14.930Z,24.03
2024-05-09T07:30:42.641Z,21.73
2024-05-09T07:33:10.101Z,26.13
2024-05-09T07:35:37.166Z,21.67
2024-05-09T07:38:04.708Z,24.17
2024-05-09T07:40:36.127Z,20.50
2024-05-09T07:43:14.604Z,22.98
2024-05-09T07:45:50.748Z,21.08
2024-05-09T07:52:37.176Z,25.38
2024-05-09T07:53:47.114Z,19.80
2024-05-09T07:56:18.572Z,22.60
2024-05-09T07:58:46.910Z,21.75
2024-05-09T08:01:14.082Z,20.92
2024-05-09T08:03:41.626Z,20.67
2024-05-09T08:06:08.998Z,19.88
2024-05-09T08:08:36.251Z,22.70
2024-05-09T08:11:03.672Z,24.10
2024-05-09T08:13:30.968Z,19.80
2024-05-09T08:15:58.046Z,16.38
2024-05-09T08:18:25.072Z,23.70
2024-05-09T08:20:52.098Z,15.65
2024-05-09T08:23:19.032Z,20.65
2024-05-09T08:25:46.405Z,17.40
2024-05-09T08:28:13.977Z,17.35
2024-05-09T08:30:41.751Z,19.60
2024-05-09T08:33:09.287Z,17.80
2024-05-09T08:35:36.861Z,16.85
2024-05-09T08:38:05.341Z,15.95
2024-05-09T08:40:36.014Z,13.70
2024-05-09T08:43:12.497Z,16.33
2024-05-09T08:45:45.362Z,14.40
2024-05-09T08:48:15.474Z,17.02
2024-05-09T08:50:43.639Z,15.85
2024-05-09T08:53:10.928Z,19.05
2024-05-09T08:55:41.686Z,13.05
2024-05-09T08:58:16.535Z,13.68
2024-05-09T09:00:45.606Z,17.70
2024-05-09T09:03:19.058Z,17.27
2024-05-09T09:05:55.616Z,13.88
2024-05-09T09:08:22.902Z,11.82
2024-05-09T09:10:53.696Z,14.02
2024-05-09T09:13:20.816Z,14.70
2024-05-09T09:15:51.102Z,16.95
2024-05-09T09:18:19.014Z,16.75
2024-05-09T09:20:46.277Z,13.88
2024-05-09T09:23:13.221Z,15.23
2024-05-09T09:25:40.788Z,11.50
2024-05-09T09:28:08.702Z,14.73
2024-05-09T09:30:42.706Z,12.00
2024-05-09T09:33:10.819Z,14.40
2024-05-09T09:35:40.130Z,15.25
2024-05-09T09:38:08.253Z,12.63
2024-05-09T09:40:40.633Z,14.27
2024-05-09T09:43:18.654Z,15.85
2024-05-09T09:45:49.730Z,15.00
2024-05-09T09:48:16.852Z,11.38
2024-05-09T09:50:45.404Z,10.65
2024-05-09T09:53:13.996Z,11.00
2024-05-09T09:55:42.122Z,11.13
2024-05-09T09:58:13.175Z,10.13
2024-05-09T10:00:41.268Z,12.48
2024-05-09T10:03:08.417Z,10.63
2024-05-09T10:05:35.814Z,12.98
2024-05-09T10:08:08.090Z,8.23
2024-05-09T10:10:37.833Z,7.47
2024-05-09T10:13:08.591Z,9.50
2024-05-09T10:15:52.922Z,8.40
2024-05-09T10:18:28.297Z,10.63
2024-05-09T10:20:57.853Z,8.45
2024-05-09T10:23:33.587Z,8.88
2024-05-09T10:26:06.205Z,7.88
2024-05-09T10:28:37.902Z,8.43
2024-05-09T10:31:08.907Z,11.85
2024-05-09T10:33:40.525Z,9.65
2024-05-09T10:36:12.426Z,8.90
2024-05-09T10:38:41.855Z,7.20
2024-05-09T10:41:08.901Z,8.88
2024-05-09T10:43:39.972Z,10.27
2024-05-09T10:46:07.430Z,8.82
2024-05-09T10:48:35.898Z,9.90
2024-05-09T10:51:03.892Z,11.00
2024-05-09T10:53:31.806Z,10.40
2024-05-09T10:56:00.138Z,11.43
2024-05-09T10:58:28.027Z,8.23
2024-05-09T11:00:55.844Z,10.85
2024-05-09T11:03:26.388Z,8.73
2024-05-09T11:05:55.222Z,8.45
2024-05-09T11:08:23.253Z,6.97
2024-05-09T11:10:52.447Z,10.98
2024-05-09T11:13:36.883Z,7.50
2024-05-09T11:16:04.938Z,9.20
2024-05-09T11:18:36.583Z,12.20
2024-05-09T11:21:12.295Z,11.63
2024-05-09T11:23:39.609Z,7.75
2024-05-09T11:26:07.565Z,7.93
2024-05-09T11:28:34.747Z,9.85
2024-05-09T11:31:10.129Z,9.45
2024-05-09T11:33:39.319Z,7.53
2024-05-09T11:36:07.494Z,7.25
2024-05-09T11:38:35.164Z,9.02
2024-05-09T11:41:03.126Z,7.63
2024-05-09T11:43:30.148Z,9.85
2024-05-09T11:46:00.893Z,12.65
2024-05-09T11:48:28.409Z,10.13
2024-05-09T11:50:56.394Z,9.65
2024-05-09T11:53:23.464Z,9.35
2024-05-09T11:55:50.588Z,7.55
2024-05-09T11:58:18.726Z,9.25
2024-05-09T12:00:46.982Z,6.88
2024-05-09T12:03:14.319Z,13.18
2024-05-09T12:05:41.507Z,8.52
2024-05-09T12:08:08.795Z,7.22
2024-05-09T12:10:36.874Z,8.38
2024-05-09T12:13:06.540Z,9.57
2024-05-09T12:15:37.156Z,8.38
2024-05-09T12:18:05.600Z,6.07
2024-05-09T12:20:37.680Z,6.15
2024-05-09T12:23:08.674Z,8.73
2024-05-09T12:25:37.221Z,7.75
2024-05-09T12:28:04.578Z,6.93
2024-05-09T12:30:37.485Z,10.40
2024-05-09T12:33:14.021Z,8.48
2024-05-09T12:35:44.407Z,7.68
2024-05-09T12:38:14.757Z,6.40
2024-05-09T12:40:42.351Z,10.45
2024-05-09T12:43:10.607Z,8.93
2024-05-09T12:45:39.065Z,7.72
2024-05-09T12:48:11.367Z,4.65
2024-05-09T12:50:39.576Z,6.85
2024-05-09T12:53:06.627Z,5.55
2024-05-09T12:55:40.663Z,6.72
2024-05-09T12:58:19.173Z,6.70
2024-05-09T13:00:46.983Z,4.72
2024-05-09T13:03:14.790Z,7.55
2024-05-09T13:05:45.941Z,7.20
2024-05-09T13:08:13.821Z,9.32
2024-05-09T13:10:41.143Z,5.95
2024-05-09T13:13:10.235Z,9.68
2024-05-09T13:15:38.553Z,8.82
2024-05-09T13:18:06.509Z,4.57
2024-05-09T13:20:35.620Z,6.47
2024-05-09T13:23:05.772Z,6.65
2024-05-09T13:25:34.844Z,7.93
2024-05-09T13:28:02.459Z,4.80
2024-05-09T13:30:38.495Z,9.32
2024-05-09T13:33:09.625Z,5.47
2024-05-09T13:35:37.188Z,8.13
2024-05-09T13:38:05.152Z,8.00
2024-05-09T13:40:35.228Z,6.78
2024-05-09T13:43:07.034Z,4.72
2024-05-09T13:45:35.122Z,5.32
2024-05-09T13:48:03.833Z,4.90
2024-05-09T13:50:35.054Z,7.05
2024-05-09T13:53:08.774Z,4.43
2024-05-09T13:55:39.979Z,6.18
2024-05-09T13:58:08.531Z,5.30
2024-05-09T14:00:44.488Z,3.97
2024-05-09T14:03:20.054Z,8.13
2024-05-09T14:05:49.638Z,9.30
2024-05-09T14:08:20.129Z,6.68
2024-05-09T14:10:48.336Z,4.90
2024-05-09T14:13:15.798Z,6.68
2024-05-09T14:15:43.130Z,5.53
2024-05-09T14:18:13.293Z,6.90
2024-05-09T14:20:41.910Z,7.70
2024-05-09T14:23:08.938Z,10.98
2024-05-09T14:25:39.795Z,8.13
2024-05-09T14:28:09.221Z,5.30
2024-05-09T14:30:38.114Z,4.20
2024-05-09T14:33:07.468Z,6.18
2024-05-09T14:35:35.794Z,4.25
2024-05-09T14:38:03.454Z,3.78
2024-05-09T14:40:40.426Z,8.68
2024-05-09T14:43:12.082Z,4.68
2024-05-09T14:45:39.666Z,5.00
2024-05-09T14:48:07.590Z,3.90
2024-05-09T14:50:38.243Z,6.22
2024-05-09T14:53:10.762Z,4.05
2024-05-09T14:55:43.480Z,4.43
2024-05-09T14:58:12.214Z,4.78
2024-05-09T15:00:46.444Z,5.82
2024-05-09T15:03:17.688Z,3.65
2024-05-09T15:05:45.267Z,4.93
2024-05-09T15:08:12.349Z,5.15
2024-05-09T15:10:41.243Z,4.75
2024-05-09T15:13:09.864Z,7.53
2024-05-09T15:15:39.215Z,3.97
2024-05-09T15:18:06.900Z,3.47
2024-05-09T15:20:36.716Z,4.13
2024-05-09T15:23:06.311Z,9.70
2024-05-09T15:25:34.481Z,4.55
2024-05-09T15:28:01.601Z,4.57
2024-05-09T15:30:32.282Z,8.30
2024-05-09T15:33:03.900Z,2.72
2024-05-09T15:35:33.259Z,3.50
2024-05-09T15:38:02.702Z,2.22
2024-05-09T15:40:37.240Z,4.22
2024-05-09T15:43:09.835Z,2.13
2024-05-09T15:45:38.590Z,4.15
2024-05-09T15:48:06.649Z,4.15
2024-05-09T15:50:38.912Z,3.83
2024-05-09T15:53:09.963Z,3.92
2024-05-09T15:55:37.985Z,3.97
2024-05-09T15:58:06.423Z,3.90
2024-05-09T16:00:38.739Z,5.88
2024-05-09T16:03:13.467Z,4.10
2024-05-09T16:05:48.663Z,6.30
2024-05-09T16:08:16.315Z,6.45
2024-05-09T16:10:46.170Z,4.15
2024-05-09T16:13:14.695Z,6.60
2024-05-09T16:15:43.745Z,16.20
2024-05-09T16:18:11.042Z,6.72
2024-05-09T16:20:41.111Z,7.55
2024-05-09T16:23:10.014Z,3.67
2024-05-09T16:25:37.786Z,3.47
2024-05-09T16:28:08.710Z,6.28
2024-05-09T16:30:40.621Z,2.63
2024-05-09T16:33:08.653Z,3.20
2024-05-09T16:35:37.144Z,3.78
2024-05-09T16:38:04.470Z,4.35
2024-05-09T16:40:38.008Z,4.38
2024-05-09T16:43:08.688Z,2.17
2024-05-09T16:45:36.574Z,6.32
2024-05-09T16:48:04.452Z,4.32
2024-05-09T16:50:34.372Z,3.28
2024-05-09T16:53:06.753Z,5.25
2024-05-09T16:55:36.738Z,5.25
2024-05-09T16:58:04.794Z,5.88
2024-05-09T17:00:40.012Z,3.33
2024-05-09T17:03:13.271Z,3.13
2024-05-09T17:05:41.748Z,6.35
2024-05-09T17:08:09.115Z,3.88
2024-05-09T17:10:37.491Z,2.70
2024-05-09T17:13:06.818Z,4.43
2024-05-09T17:15:37.261Z,3.58
2024-05-09T17:18:05.633Z,7.38
2024-05-09T17:20:35.737Z,7.05
2024-05-09T17:23:13.108Z,3.63
2024-05-09T17:25:41.429Z,4.13
2024-05-09T17:28:09.634Z,5.80
2024-05-09T17:30:38.783Z,2.90
2024-05-09T17:33:09.291Z,7.45
2024-05-09T17:35:37.464Z,9.75
2024-05-09T17:38:07.660Z,7.57
2024-05-09T17:40:36.988Z,5.97
2024-05-09T17:43:07.050Z,5.20
2024-05-09T17:45:37.626Z,5.18
2024-05-09T17:48:05.089Z,6.43
2024-05-09T17:50:35.890Z,4.55
2024-05-09T17:53:05.881Z,7.45
2024-05-09T17:55:35.108Z,3.70
2024-05-09T17:58:02.652Z,6.45
2024-05-09T18:00:37.566Z,6.32
2024-05-09T18:03:08.548Z,5.03
2024-05-09T18:05:37.036Z,8.00
2024-05-09T18:08:05.425Z,3.88
2024-05-09T18:10:36.883Z,4.38
2024-05-09T18:13:07.234Z,4.35
2024-05-09T18:15:34.860Z,3.20
2024-05-09T18:18:03.167Z,3.55
2024-05-09T18:20:39.876Z,5.55
2024-05-09T18:23:11.925Z,5.15
2024-05-09T18:25:38.976Z,6.68
2024-05-09T18:28:07.003Z,5.53
2024-05-09T18:30:37.080Z,2.78
2024-05-09T18:33:06.568Z,4.10
2024-05-09T18:35:34.896Z,3.50
2024-05-09T18:38:02.299Z,4.40
2024-05-09T18:40:34.633Z,5.57
2024-05-09T18:43:06.130Z,6.50
2024-05-09T18:45:34.826Z,5.30
2024-05-09T18:48:01.803Z,3.92
2024-05-09T18:50:35.567Z,6.25
2024-05-09T18:53:06.381Z,9.80
2024-05-09T18:55:35.888Z,3.10
2024-05-09T18:58:04.528Z,4.32
2024-05-09T19:00:37.309Z,7.05
2024-05-09T19:03:12.519Z,8.55
2024-05-09T19:05:42.442Z,4.35
2024-05-09T19:08:10.379Z,3.45
2024-05-09T19:10:39.228Z,7.55
2024-05-09T19:13:10.944Z,4.15
2024-05-09T19:15:41.056Z,4.72
2024-05-09T19:18:09.784Z,7.55
2024-05-09T19:20:37.953Z,5.72
2024-05-09T19:23:06.858Z,4.05
2024-05-09T19:25:35.030Z,4.40
2024-05-09T19:28:03.000Z,5.95
2024-05-09T19:30:38.215Z,5.40
2024-05-09T19:33:09.469Z,5.40
2024-05-09T19:35:38.498Z,3.20
2024-05-09T19:38:05.638Z,3.35
2024-05-09T19:40:34.163Z,4.00
2024-05-09T19:43:03.132Z,7.45
2024-05-09T19:45:30.998Z,5.18
2024-05-09T19:47:58.592Z,6.50
2024-05-09T19:50:35.694Z,5.68
2024-05-09T19:53:08.559Z,3.85
2024-05-09T19:55:35.834Z,8.95
2024-05-09T19:58:05.386Z,4.32
2024-05-09T20:00:39.937Z,3.72
2024-05-09T20:03:09.916Z,5.68
2024-05-09T20:05:37.738Z,3.90
2024-05-09T20:08:05.819Z,5.20
2024-05-09T20:10:35.507Z,3.90
2024-05-09T20:13:05.341Z,6.90
2024-05-09T20:15:35.748Z,5.63
2024-05-09T20:18:03.320Z,11.75
2024-05-09T20:20:37.563Z,7.22
2024-05-09T20:23:08.798Z,8.68
2024-05-09T20:25:36.079Z,7.80
2024-05-09T20:28:03.605Z,6.70
2024-05-09T20:30:33.158Z,10.85
2024-05-09T20:33:07.359Z,8.43
2024-05-09T20:35:36.138Z,6.32
2024-05-09T20:38:04.276Z,7.45
2024-05-09T20:40:35.894Z,6.78
2024-05-09T20:43:07.072Z,7.38
2024-05-09T20:45:34.773Z,7.43
2024-05-09T20:48:02.667Z,6.13
2024-05-09T20:50:37.430Z,4.40
2024-05-09T20:53:13.188Z,4.93
2024-05-09T20:55:41.752Z,8.65
2024-05-09T20:58:09.852Z,6.32
2024-05-09T21:00:41.072Z,6.47
2024-05-09T21:03:12.554Z,8.00
2024-05-09T21:05:40.900Z,6.93
2024-05-09T21:08:08.755Z,11.52
2024-05-09T21:10:36.977Z,9.23
2024-05-09T21:13:05.655Z,6.97
2024-05-09T21:15:33.505Z,7.90
2024-05-09T21:18:00.946Z,6.50
2024-05-09T21:20:31.862Z,6.63
2024-05-09T21:23:01.062Z,6.27
2024-05-09T21:25:29.300Z,7.37
2024-05-09T21:27:56.235Z,7.03
2024-05-09T21:30:32.568Z,7.07
2024-05-09T21:33:13.095Z,7.65
2024-05-09T21:35:42.552Z,7.65
2024-05-09T21:38:10.361Z,6.97
2024-05-09T21:40:38.480Z,8.60
2024-05-09T21:43:07.944Z,7.17
2024-05-09T21:45:36.121Z,9.07
2024-05-09T21:48:04.862Z,9.97
2024-05-09T21:50:39.195Z,8.10
2024-05-09T21:53:08.910Z,7.60
2024-05-09T21:55:36.307Z,8.17
2024-05-09T21:58:04.217Z,7.43
2024-05-09T22:00:36.447Z,6.90
2024-05-09T22:03:10.714Z,6.87
2024-05-09T22:05:41.741Z,6.03
2024-05-09T22:08:09.687Z,7.57
2024-05-09T22:10:37.490Z,9.77
2024-05-09T22:13:05.798Z,9.60
2024-05-09T22:15:38.231Z,6.23
2024-05-09T22:18:10.645Z,8.17
2024-05-09T22:20:44.892Z,7.10
2024-05-09T22:23:13.528Z,7.20
2024-05-09T22:25:40.900Z,12.00
2024-05-09T22:28:08.441Z,7.03
2024-05-09T22:30:39.131Z,7.87
2024-05-09T22:33:09.300Z,7.60
2024-05-09T22:35:38.071Z,9.73
2024-05-09T22:38:05.504Z,7.73
2024-05-09T22:40:42.473Z,8.97
2024-05-09T22:43:21.604Z,12.60
2024-05-09T22:45:51.318Z,8.63
2024-05-09T22:48:19.091Z,9.23
2024-05-09T22:50:46.515Z,8.13
2024-05-09T22:53:13.913Z,11.70
2024-05-09T22:55:41.282Z,10.43
2024-05-09T22:58:08.613Z,8.00
2024-05-09T23:00:36.338Z,12.70
2024-05-09T23:03:03.930Z,7.93
2024-05-09T23:05:34.442Z,10.97
2024-05-09T23:08:02.277Z,10.37
2024-05-09T23:10:35.715Z,9.70
2024-05-09T23:13:05.263Z,7.93
2024-05-09T23:15:32.729Z,10.40
2024-05-09T23:18:00.263Z,9.13
2024-05-09T23:20:36.224Z,11.23
2024-05-09T23:23:10.595Z,17.37
2024-05-09T23:25:39.020Z,8.40
2024-05-09T23:28:06.757Z,8.20
2024-05-09T23:30:38.647Z,22.73
2024-05-09T23:33:09.691Z,11.37
2024-05-09T23:35:37.538Z,10.10
2024-05-09T23:38:05.188Z,8.53
2024-05-09T23:43:03.485Z,9.33
2024-05-09T23:45:31.018Z,6.93
2024-05-09T23:47:58.516Z,9.97
2024-05-09T23:50:33.636Z,9.03
2024-05-09T23:53:03.970Z,8.63
2024-05-09T23:55:32.099Z,11.00
2024-05-09T23:57:59.958Z,9.30
